createdAt,value
2019-05-13T00:00:44.661Z,14.30
2019-05-13T00:03:13.600Z,10.17
2019-05-13T00:05:44.242Z,12.17
2019-05-13T00:08:13.762Z,13.80
2019-05-13T00:10:43.524Z,7.93
2019-05-13T00:13:11.221Z,12.97
2019-05-13T00:15:39.377Z,6.70
2019-05-13T00:18:07.399Z,13.23
2019-05-13T00:20:35.472Z,8.13
2019-05-13T00:23:04.167Z,8.93
2019-05-13T00:25:33.943Z,13.23
2019-05-13T00:28:04.016Z,16.23
2019-05-13T00:30:33.671Z,14.80
2019-05-13T00:33:03.469Z,15.33
2019-05-13T00:35:33.582Z,6.47
2019-05-13T00:38:00.922Z,11.93
2019-05-13T00:40:28.996Z,11.53
2019-05-13T00:42:57.087Z,10.67
2019-05-13T00:45:25.126Z,17.87
2019-05-13T00:47:53.825Z,11.63
2019-05-13T00:50:23.978Z,8.93
2019-05-13T00:52:53.678Z,12.70
2019-05-13T00:55:23.663Z,12.30
2019-05-13T00:57:53.965Z,10.07
2019-05-13T01:00:21.175Z,12.93
2019-05-13T01:02:49.229Z,10.27
2019-05-13T01:05:17.267Z,15.00
2019-05-13T01:07:45.275Z,11.57
2019-05-13T01:10:13.530Z,13.23
2019-05-13T01:12:43.809Z,11.37
2019-05-13T01:15:13.551Z,10.77
2019-05-13T01:17:44.487Z,12.93
2019-05-13T01:20:14.170Z,9.27
2019-05-13T01:22:43.823Z,9.97
2019-05-13T01:25:11.319Z,12.17
2019-05-13T01:27:39.410Z,6.83
2019-05-13T01:30:07.648Z,10.97
2019-05-13T01:32:35.719Z,12.37
2019-05-13T01:35:04.659Z,10.20
2019-05-13T01:37:42.204Z,10.30
2019-05-13T01:40:04.933Z,10.97
2019-05-13T01:42:33.660Z,13.20
2019-05-13T01:45:04.490Z,11.03
2019-05-13T01:47:34.901Z,8.57
2019-05-13T01:50:04.063Z,11.30
2019-05-13T01:52:34.349Z,9.77
2019-05-13T01:55:04.002Z,12.17
2019-05-13T01:57:34.137Z,11.17
2019-05-13T02:00:04.823Z,8.40
2019-05-13T02:02:33.658Z,11.23
2019-05-13T02:05:03.921Z,11.53
2019-05-13T02:07:33.574Z,11.87
2019-05-13T02:10:04.270Z,13.33
2019-05-13T02:12:34.009Z,7.17
2019-05-13T02:15:04.236Z,10.30
2019-05-13T02:17:33.625Z,13.93
2019-05-13T02:20:03.704Z,13.30
2019-05-13T02:22:33.560Z,8.47
2019-05-13T02:25:01.376Z,13.97
2019-05-13T02:27:29.376Z,20.03
2019-05-13T02:29:57.434Z,9.93
2019-05-13T02:32:25.456Z,7.73
2019-05-13T02:34:53.539Z,9.57
2019-05-13T02:37:23.177Z,8.97
2019-05-13T02:39:53.170Z,9.63
2019-05-13T02:42:22.888Z,9.10
2019-05-13T02:44:52.976Z,10.20
2019-05-13T02:47:22.605Z,10.53
2019-05-13T02:49:53.058Z,10.30
2019-05-13T02:55:43.638Z,11.00
2019-05-13T02:58:12.418Z,9.03
2019-05-13T03:00:43.978Z,9.20
2019-05-13T03:03:12.835Z,12.17
2019-05-13T03:05:42.922Z,9.77
2019-05-13T03:08:12.809Z,11.53
2019-05-13T03:10:43.130Z,11.90
2019-05-13T03:13:12.543Z,7.00
2019-05-13T03:15:52.229Z,8.30
2019-05-13T03:18:22.307Z,10.77
2019-05-13T03:20:52.659Z,10.47
2019-05-13T03:23:18.762Z,9.70
2019-05-13T03:25:46.847Z,12.13
2019-05-13T03:28:14.855Z,12.07
2019-05-13T03:30:45.689Z,9.37
2019-05-13T03:33:18.597Z,11.33
2019-05-13T03:35:45.361Z,13.60
2019-05-13T03:38:12.770Z,11.73
2019-05-13T03:40:42.686Z,10.10
2019-05-13T03:43:12.895Z,9.43
2019-05-13T03:45:43.456Z,13.37
2019-05-13T03:48:12.360Z,7.33
2019-05-13T03:50:43.181Z,6.10
2019-05-13T03:53:12.150Z,15.07
2019-05-13T03:55:43.171Z,9.17
2019-05-13T03:58:12.807Z,12.33
2019-05-13T04:00:39.184Z,12.43
2019-05-13T04:03:07.219Z,11.07
2019-05-13T04:05:35.360Z,8.90
2019-05-13T04:08:03.656Z,11.03
2019-05-13T04:10:33.404Z,8.87
2019-05-13T04:13:03.779Z,9.93
2019-05-13T04:15:31.967Z,9.07
2019-05-13T04:18:02.644Z,13.53
2019-05-13T04:20:32.996Z,9.73
2019-05-13T04:23:02.698Z,11.53
2019-05-13T04:25:32.070Z,9.07
2019-05-13T04:27:59.038Z,14.93
2019-05-13T04:30:27.125Z,9.77
2019-05-13T04:32:55.137Z,10.47
2019-05-13T04:35:23.877Z,8.90
2019-05-13T04:37:52.850Z,12.37
2019-05-13T04:40:23.287Z,9.47
2019-05-13T04:42:53.582Z,7.50
2019-05-13T04:45:23.761Z,8.30
2019-05-13T04:47:52.842Z,8.67
2019-05-13T04:53:42.545Z,11.47
2019-05-13T04:56:13.640Z,10.00
2019-05-13T04:58:52.794Z,12.80
2019-05-13T05:01:59.094Z,8.30
2019-05-13T05:04:30.530Z,9.70
2019-05-13T05:07:03.237Z,10.23
2019-05-13T05:10:13.108Z,16.77
2019-05-13T05:12:44.197Z,12.27
2019-05-13T05:15:15.538Z,8.37
2019-05-13T05:18:11.523Z,10.30
2019-05-13T05:20:53.025Z,10.37
2019-05-13T05:23:37.040Z,16.10
2019-05-13T05:26:16.901Z,9.83
2019-05-13T05:29:22.356Z,9.27
2019-05-13T05:32:13.091Z,9.67
2019-05-13T05:34:58.542Z,10.57
2019-05-13T05:40:37.663Z,12.60
2019-05-13T05:43:06.164Z,11.53
2019-05-13T05:45:36.039Z,10.10
2019-05-13T05:48:06.109Z,11.90
2019-05-13T05:50:35.534Z,10.07
2019-05-13T05:53:04.897Z,8.27
2019-05-13T05:55:34.371Z,9.53
2019-05-13T05:58:03.023Z,12.77
2019-05-13T06:00:32.418Z,13.47
2019-05-13T06:03:02.504Z,12.00
2019-05-13T06:05:31.881Z,11.90
2019-05-13T06:08:01.988Z,9.60
2019-05-13T06:10:44.154Z,10.53
2019-05-13T06:13:01.833Z,8.40
2019-05-13T06:15:31.486Z,14.13
2019-05-13T06:18:02.147Z,8.33
2019-05-13T06:20:31.517Z,6.50
2019-05-13T06:22:59.103Z,12.57
2019-05-13T06:25:27.173Z,12.47
2019-05-13T06:27:55.194Z,9.87
2019-05-13T06:30:23.201Z,6.77
2019-05-13T06:32:52.519Z,9.93
2019-05-13T06:35:21.865Z,15.20
2019-05-13T06:37:52.298Z,11.97
2019-05-13T06:40:21.401Z,10.00
2019-05-13T06:42:51.969Z,8.03
2019-05-13T06:45:21.659Z,8.33
2019-05-13T06:47:49.154Z,10.53
2019-05-13T06:50:18.808Z,9.53
2019-05-13T06:52:46.872Z,10.00
2019-05-13T06:55:14.876Z,6.77
2019-05-13T06:57:42.928Z,10.57
2019-05-13T07:00:12.171Z,12.07
2019-05-13T07:02:42.694Z,9.20
2019-05-13T07:05:11.963Z,12.10
2019-05-13T07:07:42.397Z,9.93
2019-05-13T07:10:12.518Z,10.63
2019-05-13T07:12:41.192Z,9.60
2019-05-13T07:15:11.561Z,10.33
2019-05-13T07:17:41.489Z,11.63
2019-05-13T07:20:11.374Z,7.17
2019-05-13T07:22:38.647Z,10.00
2019-05-13T07:25:07.300Z,11.50
2019-05-13T07:27:35.320Z,7.93
2019-05-13T07:30:03.584Z,8.43
2019-05-13T07:32:31.701Z,7.67
2019-05-13T07:35:03.418Z,10.83
2019-05-13T07:37:31.781Z,10.00
2019-05-13T07:40:02.357Z,8.40
2019-05-13T07:42:31.246Z,10.00
2019-05-13T07:45:01.517Z,7.47
2019-05-13T07:47:31.249Z,6.43
2019-05-13T07:49:58.761Z,7.90
2019-05-13T07:52:26.786Z,7.23
2019-05-13T07:54:54.814Z,4.23
2019-05-13T07:57:22.870Z,9.57
2019-05-13T07:59:52.406Z,6.13
2019-05-13T08:02:21.668Z,7.63
2019-05-13T08:04:52.834Z,4.93
2019-05-13T08:07:22.324Z,6.23
2019-05-13T08:09:51.814Z,6.33
2019-05-13T08:12:21.455Z,5.43
2019-05-13T08:14:48.834Z,5.37
2019-05-13T08:17:16.889Z,7.47
2019-05-13T08:19:44.916Z,8.47
2019-05-13T08:22:13.080Z,5.07
2019-05-13T08:24:42.451Z,9.10
2019-05-13T08:27:11.828Z,6.27
2019-05-13T08:29:42.180Z,5.83
2019-05-13T08:32:11.291Z,3.80
2019-05-13T08:34:41.533Z,3.03
2019-05-13T08:37:11.237Z,2.63
2019-05-13T08:39:41.269Z,3.17
2019-05-13T08:42:16.882Z,4.43
2019-05-13T08:44:41.484Z,2.90
2019-05-13T08:47:08.647Z,7.90
2019-05-13T08:49:36.695Z,3.23
2019-05-13T08:52:05.022Z,4.93
2019-05-13T08:55:06.179Z,3.23
2019-05-13T08:57:34.291Z,5.37
2019-05-13T09:00:05.292Z,3.60
2019-05-13T09:02:32.121Z,4.87
2019-05-13T09:05:02.403Z,4.37
2019-05-13T09:07:31.869Z,5.03
2019-05-13T09:10:01.912Z,4.97
2019-05-13T09:12:33.283Z,7.83
2019-05-13T09:14:58.956Z,2.60
2019-05-13T09:17:26.991Z,5.53
2019-05-13T09:19:55.001Z,4.63
2019-05-13T09:22:23.021Z,3.93
2019-05-13T09:24:53.058Z,2.27
2019-05-13T12:28:18.005Z,6.13
2019-05-13T12:30:46.623Z,5.33
2019-05-13T12:33:14.744Z,3.20
2019-05-13T12:35:43.058Z,3.50
2019-05-13T12:38:13.438Z,4.00
2019-05-13T12:40:42.882Z,4.53
2019-05-13T12:43:13.381Z,5.17
2019-05-13T12:45:43.107Z,3.10
2019-05-13T12:48:14.105Z,3.30
2019-05-13T12:50:43.212Z,3.80
2019-05-13T12:53:17.036Z,4.40
2019-05-13T12:55:52.257Z,2.60
2019-05-13T13:48:40.094Z,5.87
2019-05-13T13:51:13.680Z,4.13
2019-05-13T13:53:43.954Z,3.17
2019-05-13T13:56:14.618Z,4.00
2019-05-13T13:58:43.851Z,2.47
2019-05-13T14:01:17.737Z,3.57
2019-05-13T14:03:45.643Z,3.57
2019-05-13T14:06:12.547Z,3.67
2019-05-13T14:08:41.534Z,3.27
2019-05-13T14:11:11.674Z,5.13
2019-05-13T14:13:42.326Z,3.67
2019-05-13T14:16:25.051Z,4.53
2019-05-13T14:18:41.954Z,4.50
2019-05-13T15:33:34.879Z,3.47
2019-05-13T15:36:03.133Z,4.00
2019-05-13T15:38:32.081Z,4.50
2019-05-13T15:41:02.420Z,3.13
2019-05-13T15:43:31.837Z,5.57
2019-05-13T15:46:01.735Z,5.23
2019-05-13T15:48:31.553Z,6.13
2019-05-13T15:54:22.213Z,4.63
2019-05-13T15:56:50.683Z,6.60
2019-05-13T15:59:21.441Z,7.10
2019-05-13T16:01:49.054Z,4.40
2019-05-13T16:04:17.187Z,2.97
2019-05-13T16:06:54.372Z,3.07
2019-05-13T16:09:22.656Z,4.83
2019-05-13T16:11:52.204Z,4.13
2019-05-13T16:14:21.980Z,5.43
2019-05-13T16:16:50.485Z,11.83
2019-05-13T16:19:18.751Z,7.37
2019-05-13T16:21:47.134Z,7.23
2019-05-13T16:24:15.197Z,5.90
2019-05-13T16:26:43.307Z,4.00
2019-05-13T16:29:12.439Z,3.77
2019-05-13T16:31:41.709Z,3.77
2019-05-13T16:34:11.159Z,3.47
2019-05-13T16:36:42.923Z,4.07
2019-05-13T16:39:12.301Z,3.13
2019-05-13T16:41:42.665Z,3.57
2019-05-13T16:44:11.922Z,8.57
2019-05-13T16:46:42.520Z,2.17
2019-05-13T16:49:12.090Z,6.47
2019-05-13T16:51:42.656Z,4.27
2019-05-13T16:54:10.216Z,7.57
2019-05-13T16:56:38.442Z,5.10
2019-05-13T16:59:06.723Z,3.07
2019-05-13T17:01:35.646Z,4.83
2019-05-13T17:04:04.343Z,7.30
2019-05-13T17:06:32.796Z,5.20
2019-05-13T17:09:02.056Z,3.87
2019-05-13T17:11:32.121Z,5.07
2019-05-13T17:14:02.319Z,4.10
2019-05-13T17:16:31.735Z,3.30
2019-05-13T17:19:01.421Z,3.53
2019-05-13T17:21:31.657Z,4.43
2019-05-13T17:24:01.569Z,4.43
2019-05-13T17:26:32.497Z,4.60
2019-05-13T17:32:11.615Z,5.33
2019-05-13T17:34:43.447Z,5.73
2019-05-13T17:37:11.744Z,5.87
2019-05-13T17:39:41.485Z,4.30
2019-05-13T17:42:09.438Z,4.10
2019-05-13T17:44:37.633Z,3.57
2019-05-13T17:47:05.807Z,8.17
2019-05-13T17:52:43.771Z,5.37
2019-05-13T17:55:12.923Z,3.13
2019-05-13T17:57:43.325Z,4.87
2019-05-13T18:00:13.616Z,3.50
2019-05-13T18:02:45.953Z,5.87
2019-05-13T18:05:24.097Z,5.23
2019-05-13T18:07:55.254Z,3.83
2019-05-13T18:10:23.431Z,3.83
2019-05-13T18:12:57.017Z,6.83
2019-05-13T18:15:25.873Z,4.20
2019-05-13T18:18:05.922Z,5.93
2019-05-13T18:20:36.477Z,4.17
2019-05-13T18:23:04.445Z,4.63
2019-05-13T19:48:55.135Z,6.13
2019-05-13T19:51:23.587Z,5.77
2019-05-13T19:53:52.066Z,4.40
2019-05-13T19:56:23.484Z,4.50
2019-05-13T19:59:28.765Z,7.93
2019-05-13T20:02:03.964Z,6.37
2019-05-13T20:04:33.281Z,7.03
2019-05-13T20:07:01.695Z,4.67
2019-05-13T20:09:32.206Z,6.13
2019-05-13T20:14:53.926Z,3.63
2019-05-13T20:17:22.128Z,4.17
2019-05-13T20:20:22.365Z,5.83
2019-05-13T20:23:12.397Z,4.53
2019-05-13T20:25:52.261Z,2.67
2019-05-13T20:28:34.801Z,5.87
2019-05-13T20:31:28.754Z,4.10
2019-05-13T20:33:58.536Z,2.60
2019-05-13T20:36:31.632Z,5.03
2019-05-13T20:39:02.231Z,4.33
2019-05-13T20:41:31.687Z,3.63
2019-05-13T20:44:01.441Z,6.77
2019-05-13T20:46:32.535Z,4.33
2019-05-13T20:48:59.649Z,3.13
2019-05-13T20:51:27.806Z,4.30
2019-05-13T20:53:56.083Z,5.67
2019-05-13T20:56:24.369Z,4.67
2019-05-13T20:58:52.508Z,2.67
2019-05-13T21:01:21.172Z,4.30
2019-05-13T21:03:51.518Z,3.80
2019-05-13T21:06:19.587Z,4.37
2019-05-13T21:08:48.065Z,3.30
2019-05-13T21:11:16.374Z,2.40
2019-05-13T21:13:45.069Z,3.97
2019-05-13T21:16:14.607Z,4.47
2019-05-13T21:18:42.588Z,4.97
2019-05-13T21:21:11.628Z,7.40
2019-05-13T21:23:41.754Z,4.43
2019-05-13T21:26:13.088Z,3.33
2019-05-13T21:28:41.897Z,3.90
2019-05-13T21:31:11.313Z,3.17
2019-05-13T21:33:39.560Z,5.20
2019-05-13T21:36:07.633Z,3.90
2019-05-13T21:38:35.726Z,4.77
2019-05-13T21:41:03.814Z,3.70
2019-05-13T21:43:32.370Z,5.13
2019-05-13T21:46:01.957Z,6.20
2019-05-13T21:48:32.487Z,4.90
2019-05-13T21:51:00.176Z,6.53
2019-05-13T21:53:28.327Z,3.57
2019-05-13T21:55:56.790Z,4.93
2019-05-13T21:58:24.869Z,6.40
2019-05-13T22:00:53.696Z,5.77
2019-05-13T22:03:21.876Z,3.60
2019-05-13T22:05:51.554Z,4.10
2019-05-13T22:08:21.623Z,7.77
2019-05-13T22:10:52.226Z,6.67
2019-05-13T22:13:19.635Z,4.03
2019-05-13T22:15:48.860Z,5.10
2019-05-13T22:18:17.117Z,3.60
2019-05-13T22:20:50.437Z,3.03
2019-05-13T22:23:14.820Z,3.03
2019-05-13T22:25:43.718Z,4.37
2019-05-13T22:28:12.200Z,2.33
2019-05-13T22:30:41.196Z,3.07
2019-05-13T22:33:09.615Z,4.70
2019-05-13T22:35:37.813Z,5.00
2019-05-13T22:38:05.977Z,5.87
2019-05-13T22:40:33.969Z,5.80
2019-05-13T22:43:02.039Z,5.03
2019-05-13T22:45:31.277Z,3.20
2019-05-13T22:47:59.456Z,4.20
2019-05-13T22:50:27.482Z,2.77
2019-05-13T22:52:55.479Z,4.23
2019-05-13T22:55:23.471Z,3.40
2019-05-13T22:57:51.554Z,5.43
2019-05-13T23:00:22.157Z,6.17
2019-05-13T23:02:52.884Z,2.13
2019-05-13T23:05:21.742Z,3.80
2019-05-13T23:07:51.447Z,2.57
2019-05-13T23:10:22.344Z,5.03
2019-05-13T23:12:51.518Z,4.70
2019-05-13T23:15:21.285Z,3.10
2019-05-13T23:17:51.886Z,3.37
2019-05-13T23:20:21.292Z,3.70
2019-05-13T23:22:51.883Z,3.90
2019-05-13T23:25:21.303Z,4.50
2019-05-13T23:27:48.541Z,2.03
2019-05-13T23:30:16.577Z,5.13
2019-05-13T23:32:44.610Z,4.90
2019-05-13T23:35:12.673Z,5.10
2019-05-13T23:37:41.687Z,6.13
2019-05-13T23:40:11.824Z,3.47
2019-05-13T23:42:40.160Z,3.47
2019-05-13T23:45:11.545Z,2.83
2019-05-13T23:47:41.563Z,2.83
2019-05-13T23:50:09.582Z,4.43
2019-05-13T23:52:41.697Z,3.37
2019-05-13T23:55:11.050Z,4.50
2019-05-13T23:57:41.664Z,3.33
